sensor_id;sensor_type;location;lat;lon;timestamp;P1;durP1;ratioP1;P2;durP2;ratioP2
76995;SDS011;65929;49.062;10.338;2023-07-02T00:00:02;1.95;;;1.50;;
76995;SDS011;65929;49.062;10.338;2023-07-02T00:01:08;2.88;;;1.50;;
76995;SDS011;65929;49.062;10.338;2023-07-02T00:02:08;3.90;;;2.47;;
76995;SDS011;65929;49.062;10.338;2023-07-02T00:03:10;3.38;;;1.75;;
76995;SDS011;65929;49.062;10.338;2023-07-02T00:04:11;3.20;;;1.80;;
76995;SDS011;65929;49.062;10.338;2023-07-02T00:06:19;2.97;;;1.65;;
76995;SDS011;65929;49.062;10.338;2023-07-02T00:07:20;3.60;;;1.70;;
76995;SDS011;65929;49.062;10.338;2023-07-02T00:08:21;2.53;;;1.90;;
76995;SDS011;65929;49.062;10.338;2023-07-02T00:09:22;3.45;;;2.25;;
76995;SDS011;65929;49.062;10.338;2023-07-02T00:10:23;2.72;;;2.00;;
76995;SDS011;65929;49.062;10.338;2023-07-02T00:11:24;3.22;;;1.80;;
76995;SDS011;65929;49.062;10.338;2023-07-02T00:12:25;2.45;;;1.80;;
76995;SDS011;65929;49.062;10.338;2023-07-02T00:13:26;3.28;;;2.17;;
76995;SDS011;65929;49.062;10.338;2023-07-02T00:14:27;2.42;;;1.80;;
76995;SDS011;65929;49.062;10.338;2023-07-02T00:15:28;3.35;;;2.40;;
76995;SDS011;65929;49.062;10.338;2023-07-02T00:16:32;3.53;;;2.15;;
76995;SDS011;65929;49.062;10.338;2023-07-02T00:28:54;3.50;;;2.38;;
76995;SDS011;65929;49.062;10.338;2023-07-02T00:29:56;3.42;;;2.33;;
76995;SDS011;65929;49.062;10.338;2023-07-02T00:30:57;4.47;;;2.50;;
76995;SDS011;65929;49.062;10.338;2023-07-02T00:31:58;3.35;;;2.40;;
76995;SDS011;65929;49.062;10.338;2023-07-02T00:33:02;3.65;;;2.65;;
76995;SDS011;65929;49.062;10.338;2023-07-02T00:34:03;3.67;;;2.72;;
76995;SDS011;65929;49.062;10.338;2023-07-02T00:35:05;3.78;;;2.40;;
76995;SDS011;65929;49.062;10.338;2023-07-02T00:36:09;3.75;;;2.42;;
76995;SDS011;65929;49.062;10.338;2023-07-02T00:37:14;3.65;;;2.40;;
76995;SDS011;65929;49.062;10.338;2023-07-02T00:38:15;3.72;;;2.30;;
76995;SDS011;65929;49.062;10.338;2023-07-02T00:39:16;3.67;;;2.60;;
76995;SDS011;65929;49.062;10.338;2023-07-02T00:40:18;4.28;;;2.50;;
76995;SDS011;65929;49.062;10.338;2023-07-02T00:41:21;3.63;;;2.35;;
76995;SDS011;65929;49.062;10.338;2023-07-02T00:42:26;3.55;;;2.58;;
76995;SDS011;65929;49.062;10.338;2023-07-02T00:43:29;3.72;;;2.83;;
76995;SDS011;65929;49.062;10.338;2023-07-02T00:44:35;3.70;;;2.60;;
76995;SDS011;65929;49.062;10.338;2023-07-02T00:45:40;3.10;;;2.10;;
76995;SDS011;65929;49.062;10.338;2023-07-02T00:46:44;3.75;;;2.42;;
76995;SDS011;65929;49.062;10.338;2023-07-02T00:47:45;3.15;;;2.28;;
76995;SDS011;65929;49.062;10.338;2023-07-02T00:48:51;2.83;;;2.17;;
76995;SDS011;65929;49.062;10.338;2023-07-02T00:49:52;4.50;;;2.80;;
76995;SDS011;65929;49.062;10.338;2023-07-02T00:50:53;3.50;;;2.55;;
76995;SDS011;65929;49.062;10.338;2023-07-02T00:51:55;3.75;;;2.00;;
76995;SDS011;65929;49.062;10.338;2023-07-02T00:52:56;3.63;;;2.42;;
76995;SDS011;65929;49.062;10.338;2023-07-02T00:54:01;3.78;;;2.40;;
76995;SDS011;65929;49.062;10.338;2023-07-02T00:55:05;3.78;;;2.08;;
76995;SDS011;65929;49.062;10.338;2023-07-02T00:56:06;4.90;;;2.75;;
76995;SDS011;65929;49.062;10.338;2023-07-02T00:57:07;3.03;;;2.28;;
76995;SDS011;65929;49.062;10.338;2023-07-02T00:58:09;3.38;;;2.50;;
76995;SDS011;65929;49.062;10.338;2023-07-02T00:59:10;4.13;;;2.60;;
76995;SDS011;65929;49.062;10.338;2023-07-02T01:00:16;2.70;;;2.10;;
76995;SDS011;65929;49.062;10.338;2023-07-02T01:01:18;3.50;;;2.50;;
76995;SDS011;65929;49.062;10.338;2023-07-02T01:02:23;4.20;;;2.30;;
76995;SDS011;65929;49.062;10.338;2023-07-02T01:03:25;3.45;;;2.20;;
76995;SDS011;65929;49.062;10.338;2023-07-02T01:04:26;3.53;;;2.15;;
76995;SDS011;65929;49.062;10.338;2023-07-02T01:05:28;3.08;;;2.33;;
76995;SDS011;65929;49.062;10.338;2023-07-02T01:06:47;4.25;;;2.28;;
76995;SDS011;65929;49.062;10.338;2023-07-02T01:07:50;4.43;;;2.67;;
76995;SDS011;65929;49.062;10.338;2023-07-02T01:08:51;2.17;;;1.98;;
76995;SDS011;65929;49.062;10.338;2023-07-02T01:09:54;3.42;;;2.47;;
76995;SDS011;65929;49.062;10.338;2023-07-02T01:10:55;4.35;;;2.35;;
76995;SDS011;65929;49.062;10.338;2023-07-02T01:11:57;2.92;;;2.40;;
76995;SDS011;65929;49.062;10.338;2023-07-02T01:13:00;3.58;;;2.55;;
76995;SDS011;65929;49.062;10.338;2023-07-02T01:14:05;4.22;;;2.33;;
76995;SDS011;65929;49.062;10.338;2023-07-02T01:15:09;3.35;;;2.20;;
76995;SDS011;65929;49.062;10.338;2023-07-02T01:16:12;3.40;;;2.80;;
76995;SDS011;65929;49.062;10.338;2023-07-02T01:17:13;3.75;;;2.30;;
76995;SDS011;65929;49.062;10.338;2023-07-02T01:18:19;4.68;;;2.60;;
76995;SDS011;65929;49.062;10.338;2023-07-02T01:19:21;2.80;;;2.20;;
76995;SDS011;65929;49.062;10.338;2023-07-02T01:20:28;2.60;;;1.80;;
76995;SDS011;65929;49.062;10.338;2023-07-02T01:21:30;3.20;;;2.10;;
76995;SDS011;65929;49.062;10.338;2023-07-02T01:22:32;4.07;;;2.28;;
76995;SDS011;65929;49.062;10.338;2023-07-02T01:23:33;3.20;;;2.10;;
76995;SDS011;65929;49.062;10.338;2023-07-02T01:24:35;5.60;;;2.63;;
76995;SDS011;65929;49.062;10.338;2023-07-02T01:25:36;3.80;;;2.22;;
76995;SDS011;65929;49.062;10.338;2023-07-02T01:26:37;3.30;;;2.30;;
76995;SDS011;65929;49.062;10.338;2023-07-02T01:27:38;3.17;;;2.50;;
76995;SDS011;65929;49.062;10.338;2023-07-02T01:28:39;2.58;;;2.08;;
76995;SDS011;65929;49.062;10.338;2023-07-02T01:29:41;3.40;;;2.03;;
76995;SDS011;65929;49.062;10.338;2023-07-02T01:30:45;4.05;;;2.72;;
76995;SDS011;65929;49.062;10.338;2023-07-02T01:31:46;3.70;;;2.40;;
76995;SDS011;65929;49.062;10.338;2023-07-02T01:32:47;5.57;;;2.60;;
76995;SDS011;65929;49.062;10.338;2023-07-02T01:33:48;3.25;;;1.92;;
76995;SDS011;65929;49.062;10.338;2023-07-02T01:34:49;3.45;;;2.40;;
76995;SDS011;65929;49.062;10.338;2023-07-02T01:35:54;3.83;;;2.17;;
76995;SDS011;65929;49.062;10.338;2023-07-02T01:36:55;2.65;;;2.13;;
76995;SDS011;65929;49.062;10.338;2023-07-02T01:37:56;4.25;;;2.55;;
76995;SDS011;65929;49.062;10.338;2023-07-02T01:38:57;3.20;;;2.22;;
76995;SDS011;65929;49.062;10.338;2023-07-02T01:39:58;4.20;;;2.10;;
76995;SDS011;65929;49.062;10.338;2023-07-02T01:40:59;3.97;;;2.47;;
76995;SDS011;65929;49.062;10.338;2023-07-02T01:42:09;3.28;;;2.30;;
76995;SDS011;65929;49.062;10.338;2023-07-02T01:43:11;4.13;;;2.30;;
76995;SDS011;65929;49.062;10.338;2023-07-02T01:44:12;2.67;;;2.03;;
76995;SDS011;65929;49.062;10.338;2023-07-02T01:45:13;3.92;;;2.67;;
76995;SDS011;65929;49.062;10.338;2023-07-02T01:46:14;2.70;;;2.33;;
76995;SDS011;65929;49.062;10.338;2023-07-02T01:47:15;3.60;;;2.17;;
76995;SDS011;65929;49.062;10.338;2023-07-02T01:48:16;4.20;;;2.72;;
76995;SDS011;65929;49.062;10.338;2023-07-02T01:49:18;4.65;;;2.60;;
76995;SDS011;65929;49.062;10.338;2023-07-02T01:50:19;3.22;;;2.70;;
76995;SDS011;65929;49.062;10.338;2023-07-02T01:51:22;3.78;;;2.30;;
76995;SDS011;65929;49.062;10.338;2023-07-02T01:52:23;4.38;;;2.60;;
76995;SDS011;65929;49.062;10.338;2023-07-02T01:53:24;3.97;;;2.80;;
76995;SDS011;65929;49.062;10.338;2023-07-02T01:54:26;4.25;;;2.65;;
76995;SDS011;65929;49.062;10.338;2023-07-02T01:55:27;3.40;;;2.50;;
76995;SDS011;65929;49.062;10.338;2023-07-02T01:56:28;3.17;;;2.42;;
76995;SDS011;65929;49.062;10.338;2023-07-02T01:57:29;4.32;;;2.28;;
76995;SDS011;65929;49.062;10.338;2023-07-02T01:58:30;4.05;;;2.35;;
76995;SDS011;65929;49.062;10.338;2023-07-02T01:59:31;2.55;;;2.15;;
76995;SDS011;65929;49.062;10.338;2023-07-02T02:00:32;3.22;;;2.42;;
76995;SDS011;65929;49.062;10.338;2023-07-02T02:01:33;3.35;;;2.55;;
76995;SDS011;65929;49.062;10.338;2023-07-02T02:02:34;3.97;;;2.60;;
76995;SDS011;65929;49.062;10.338;2023-07-02T02:03:35;3.35;;;2.70;;
76995;SDS011;65929;49.062;10.338;2023-07-02T02:04:36;4.38;;;2.30;;
76995;SDS011;65929;49.062;10.338;2023-07-02T02:05:37;3.10;;;2.50;;
76995;SDS011;65929;49.062;10.338;2023-07-02T02:06:39;3.38;;;2.50;;
76995;SDS011;65929;49.062;10.338;2023-07-02T02:07:40;3.15;;;2.10;;
76995;SDS011;65929;49.062;10.338;2023-07-02T02:08:41;3.92;;;2.28;;
76995;SDS011;65929;49.062;10.338;2023-07-02T02:09:43;3.55;;;2.80;;
76995;SDS011;65929;49.062;10.338;2023-07-02T02:10:44;4.30;;;2.58;;
76995;SDS011;65929;49.062;10.338;2023-07-02T02:11:49;3.83;;;2.50;;
76995;SDS011;65929;49.062;10.338;2023-07-02T02:12:50;2.83;;;1.95;;
76995;SDS011;65929;49.062;10.338;2023-07-02T02:13:51;2.60;;;2.03;;
76995;SDS011;65929;49.062;10.338;2023-07-02T02:14:52;3.78;;;2.42;;
76995;SDS011;65929;49.062;10.338;2023-07-02T02:15:54;3.35;;;2.50;;
76995;SDS011;65929;49.062;10.338;2023-07-02T02:16:55;3.80;;;2.40;;
76995;SDS011;65929;49.062;10.338;2023-07-02T02:17:56;4.55;;;2.60;;
76995;SDS011;65929;49.062;10.338;2023-07-02T02:18:56;2.92;;;2.15;;
76995;SDS011;65929;49.062;10.338;2023-07-02T02:19:57;4.95;;;2.83;;
76995;SDS011;65929;49.062;10.338;2023-07-02T02:20:58;3.72;;;2.40;;
76995;SDS011;65929;49.062;10.338;2023-07-02T02:22:01;3.40;;;2.22;;
76995;SDS011;65929;49.062;10.338;2023-07-02T02:23:02;3.17;;;2.30;;
76995;SDS011;65929;49.062;10.338;2023-07-02T02:24:03;3.65;;;2.80;;
76995;SDS011;65929;49.062;10.338;2023-07-02T02:25:05;3.63;;;2.35;;
76995;SDS011;65929;49.062;10.338;2023-07-02T02:26:07;2.83;;;2.10;;
76995;SDS011;65929;49.062;10.338;2023-07-02T02:27:07;3.78;;;2.50;;
76995;SDS011;65929;49.062;10.338;2023-07-02T02:28:09;3.22;;;2.33;;
76995;SDS011;65929;49.062;10.338;2023-07-02T02:29:10;3.65;;;2.40;;
76995;SDS011;65929;49.062;10.338;2023-07-02T02:30:11;4.65;;;2.60;;
76995;SDS011;65929;49.062;10.338;2023-07-02T02:31:12;7.10;;;2.85;;
76995;SDS011;65929;49.062;10.338;2023-07-02T02:32:13;3.35;;;2.63;;
76995;SDS011;65929;49.062;10.338;2023-07-02T02:33:14;3.13;;;2.63;;
76995;SDS011;65929;49.062;10.338;2023-07-02T02:34:15;4.53;;;2.53;;
76995;SDS011;65929;49.062;10.338;2023-07-02T02:35:16;3.83;;;2.22;;
76995;SDS011;65929;49.062;10.338;2023-07-02T02:36:17;3.78;;;2.53;;
76995;SDS011;65929;49.062;10.338;2023-07-02T02:37:20;3.70;;;2.60;;
76995;SDS011;65929;49.062;10.338;2023-07-02T02:38:22;3.40;;;2.33;;
76995;SDS011;65929;49.062;10.338;2023-07-02T02:39:23;3.83;;;2.63;;
76995;SDS011;65929;49.062;10.338;2023-07-02T02:40:24;4.40;;;2.50;;
76995;SDS011;65929;49.062;10.338;2023-07-02T02:41:25;4.97;;;2.58;;
76995;SDS011;65929;49.062;10.338;2023-07-02T02:42:26;3.95;;;2.80;;
76995;SDS011;65929;49.062;10.338;2023-07-02T02:43:27;4.45;;;2.80;;
76995;SDS011;65929;49.062;10.338;2023-07-02T02:44:28;4.85;;;2.78;;
76995;SDS011;65929;49.062;10.338;2023-07-02T02:45:29;4.22;;;2.65;;
76995;SDS011;65929;49.062;10.338;2023-07-02T02:46:30;3.72;;;2.80;;
76995;SDS011;65929;49.062;10.338;2023-07-02T02:47:31;4.03;;;2.60;;
76995;SDS011;65929;49.062;10.338;2023-07-02T02:48:32;4.38;;;2.80;;
76995;SDS011;65929;49.062;10.338;2023-07-02T02:49:33;3.92;;;2.50;;
76995;SDS011;65929;49.062;10.338;2023-07-02T02:50:37;5.45;;;2.95;;
76995;SDS011;65929;49.062;10.338;2023-07-02T02:51:41;3.97;;;2.60;;
76995;SDS011;65929;49.062;10.338;2023-07-02T02:52:43;4.55;;;2.65;;
76995;SDS011;65929;49.062;10.338;2023-07-02T02:53:45;5.18;;;2.60;;
76995;SDS011;65929;49.062;10.338;2023-07-02T02:54:46;3.13;;;2.40;;
76995;SDS011;65929;49.062;10.338;2023-07-02T02:55:47;5.63;;;2.90;;
76995;SDS011;65929;49.062;10.338;2023-07-02T02:56:48;4.43;;;2.95;;
76995;SDS011;65929;49.062;10.338;2023-07-02T02:57:49;5.10;;;2.80;;
76995;SDS011;65929;49.062;10.338;2023-07-02T02:58:50;5.13;;;2.78;;
76995;SDS011;65929;49.062;10.338;2023-07-02T02:59:51;4.57;;;3.10;;
76995;SDS011;65929;49.062;10.338;2023-07-02T03:00:52;5.60;;;3.60;;
76995;SDS011;65929;49.062;10.338;2023-07-02T03:01:53;7.25;;;3.58;;
76995;SDS011;65929;49.062;10.338;2023-07-02T03:02:54;5.90;;;3.58;;
76995;SDS011;65929;49.062;10.338;2023-07-02T03:03:55;5.05;;;2.92;;
76995;SDS011;65929;49.062;10.338;2023-07-02T03:04:58;6.05;;;3.60;;
76995;SDS011;65929;49.062;10.338;2023-07-02T03:06:02;5.38;;;3.20;;
76995;SDS011;65929;49.062;10.338;2023-07-02T03:07:03;5.20;;;3.45;;
76995;SDS011;65929;49.062;10.338;2023-07-02T03:08:05;4.53;;;3.05;;
76995;SDS011;65929;49.062;10.338;2023-07-02T03:09:06;4.53;;;3.20;;
76995;SDS011;65929;49.062;10.338;2023-07-02T03:10:10;5.57;;;3.30;;
76995;SDS011;65929;49.062;10.338;2023-07-02T03:11:11;4.65;;;3.53;;
76995;SDS011;65929;49.062;10.338;2023-07-02T03:12:12;4.78;;;2.97;;
76995;SDS011;65929;49.062;10.338;2023-07-02T03:13:13;4.22;;;3.10;;
76995;SDS011;65929;49.062;10.338;2023-07-02T03:14:14;6.70;;;3.50;;
76995;SDS011;65929;49.062;10.338;2023-07-02T03:15:15;3.70;;;2.90;;
76995;SDS011;65929;49.062;10.338;2023-07-02T03:16:17;5.68;;;3.08;;
76995;SDS011;65929;49.062;10.338;2023-07-02T03:17:18;4.55;;;2.47;;
76995;SDS011;65929;49.062;10.338;2023-07-02T03:18:19;5.00;;;3.10;;
76995;SDS011;65929;49.062;10.338;2023-07-02T03:19:20;4.43;;;3.20;;
76995;SDS011;65929;49.062;10.338;2023-07-02T03:20:21;4.65;;;3.10;;
76995;SDS011;65929;49.062;10.338;2023-07-02T03:21:22;4.18;;;3.30;;
76995;SDS011;65929;49.062;10.338;2023-07-02T03:22:23;5.93;;;3.08;;
76995;SDS011;65929;49.062;10.338;2023-07-02T03:23:25;4.22;;;3.17;;
76995;SDS011;65929;49.062;10.338;2023-07-02T03:24:26;4.22;;;3.08;;
76995;SDS011;65929;49.062;10.338;2023-07-02T03:25:27;5.57;;;3.38;;
76995;SDS011;65929;49.062;10.338;2023-07-02T03:26:28;3.95;;;3.00;;
76995;SDS011;65929;49.062;10.338;2023-07-02T03:27:29;4.80;;;3.15;;
76995;SDS011;65929;49.062;10.338;2023-07-02T03:28:30;4.80;;;3.33;;
76995;SDS011;65929;49.062;10.338;2023-07-02T03:29:33;7.07;;;3.60;;
76995;SDS011;65929;49.062;10.338;2023-07-02T03:30:35;4.93;;;3.05;;
76995;SDS011;65929;49.062;10.338;2023-07-02T03:31:36;5.88;;;3.45;;
76995;SDS011;65929;49.062;10.338;2023-07-02T03:32:37;5.95;;;3.53;;
76995;SDS011;65929;49.062;10.338;2023-07-02T03:33:38;4.45;;;3.28;;
76995;SDS011;65929;49.062;10.338;2023-07-02T03:34:38;5.03;;;3.20;;
76995;SDS011;65929;49.062;10.338;2023-07-02T03:35:39;5.18;;;3.42;;
76995;SDS011;65929;49.062;10.338;2023-07-02T03:36:41;3.80;;;2.83;;
76995;SDS011;65929;49.062;10.338;2023-07-02T03:37:41;3.58;;;2.90;;
76995;SDS011;65929;49.062;10.338;2023-07-02T03:38:45;6.60;;;3.53;;
76995;SDS011;65929;49.062;10.338;2023-07-02T03:39:46;5.65;;;2.97;;
76995;SDS011;65929;49.062;10.338;2023-07-02T03:40:47;5.32;;;2.80;;
76995;SDS011;65929;49.062;10.338;2023-07-02T03:41:48;6.40;;;2.83;;
76995;SDS011;65929;49.062;10.338;2023-07-02T03:42:49;5.75;;;3.33;;
76995;SDS011;65929;49.062;10.338;2023-07-02T03:43:50;4.47;;;3.03;;
76995;SDS011;65929;49.062;10.338;2023-07-02T03:44:51;5.47;;;3.17;;
76995;SDS011;65929;49.062;10.338;2023-07-02T03:45:52;4.72;;;3.15;;
76995;SDS011;65929;49.062;10.338;2023-07-02T03:46:53;4.72;;;3.08;;
76995;SDS011;65929;49.062;10.338;2023-07-02T03:47:54;4.20;;;3.05;;
76995;SDS011;65929;49.062;10.338;2023-07-02T03:48:55;5.82;;;3.35;;
76995;SDS011;65929;49.062;10.338;2023-07-02T03:49:56;4.80;;;3.65;;
76995;SDS011;65929;49.062;10.338;2023-07-02T03:50:57;4.88;;;3.58;;
76995;SDS011;65929;49.062;10.338;2023-07-02T03:51:58;5.60;;;3.40;;
76995;SDS011;65929;49.062;10.338;2023-07-02T03:52:58;5.53;;;3.33;;
76995;SDS011;65929;49.062;10.338;2023-07-02T03:54:01;3.80;;;2.83;;
76995;SDS011;65929;49.062;10.338;2023-07-02T03:55:02;5.30;;;3.22;;
76995;SDS011;65929;49.062;10.338;2023-07-02T03:56:04;4.35;;;3.35;;
76995;SDS011;65929;49.062;10.338;2023-07-02T03:57:05;5.80;;;3.40;;
76995;SDS011;65929;49.062;10.338;2023-07-02T03:58:07;5.88;;;3.22;;
76995;SDS011;65929;49.062;10.338;2023-07-02T03:59:08;5.10;;;3.05;;
76995;SDS011;65929;49.062;10.338;2023-07-02T04:00:09;6.32;;;3.47;;
76995;SDS011;65929;49.062;10.338;2023-07-02T04:01:11;5.95;;;3.28;;
76995;SDS011;65929;49.062;10.338;2023-07-02T04:02:12;5.20;;;3.75;;
76995;SDS011;65929;49.062;10.338;2023-07-02T04:03:13;5.63;;;3.33;;
76995;SDS011;65929;49.062;10.338;2023-07-02T04:04:14;6.10;;;3.30;;
76995;SDS011;65929;49.062;10.338;2023-07-02T04:05:15;3.85;;;2.97;;
76995;SDS011;65929;49.062;10.338;2023-07-02T04:06:16;4.20;;;3.30;;
76995;SDS011;65929;49.062;10.338;2023-07-02T04:07:17;4.70;;;3.35;;
76995;SDS011;65929;49.062;10.338;2023-07-02T04:08:18;6.40;;;2.95;;
76995;SDS011;65929;49.062;10.338;2023-07-02T04:09:22;6.30;;;3.17;;
76995;SDS011;65929;49.062;10.338;2023-07-02T04:10:23;4.75;;;2.88;;
76995;SDS011;65929;49.062;10.338;2023-07-02T04:11:24;3.10;;;2.80;;
76995;SDS011;65929;49.062;10.338;2023-07-02T04:12:25;4.18;;;3.08;;
76995;SDS011;65929;49.062;10.338;2023-07-02T04:13:26;4.97;;;3.33;;
76995;SDS011;65929;49.062;10.338;2023-07-02T04:14:27;4.60;;;2.85;;
76995;SDS011;65929;49.062;10.338;2023-07-02T04:15:28;5.05;;;2.92;;
76995;SDS011;65929;49.062;10.338;2023-07-02T04:16:29;3.97;;;2.88;;
76995;SDS011;65929;49.062;10.338;2023-07-02T04:17:30;4.57;;;2.90;;
76995;SDS011;65929;49.062;10.338;2023-07-02T04:18:30;5.30;;;3.33;;
76995;SDS011;65929;49.062;10.338;2023-07-02T04:19:31;3.75;;;2.38;;
76995;SDS011;65929;49.062;10.338;2023-07-02T04:20:32;4.45;;;2.90;;
76995;SDS011;65929;49.062;10.338;2023-07-02T04:21:33;3.53;;;2.50;;
76995;SDS011;65929;49.062;10.338;2023-07-02T04:22:34;4.22;;;2.33;;
76995;SDS011;65929;49.062;10.338;2023-07-02T04:23:35;6.00;;;3.30;;
76995;SDS011;65929;49.062;10.338;2023-07-02T04:24:37;3.88;;;2.78;;
76995;SDS011;65929;49.062;10.338;2023-07-02T04:25:38;3.92;;;2.65;;
76995;SDS011;65929;49.062;10.338;2023-07-02T04:26:39;5.22;;;2.85;;
76995;SDS011;65929;49.062;10.338;2023-07-02T04:27:42;3.85;;;2.60;;
76995;SDS011;65929;49.062;10.338;2023-07-02T04:28:44;3.63;;;2.50;;
76995;SDS011;65929;49.062;10.338;2023-07-02T04:29:45;6.38;;;2.97;;
76995;SDS011;65929;49.062;10.338;2023-07-02T04:30:46;4.40;;;2.60;;
76995;SDS011;65929;49.062;10.338;2023-07-02T04:31:49;4.32;;;2.38;;
76995;SDS011;65929;49.062;10.338;2023-07-02T04:32:50;5.10;;;2.90;;
76995;SDS011;65929;49.062;10.338;2023-07-02T04:33:52;3.40;;;2.42;;
76995;SDS011;65929;49.062;10.338;2023-07-02T04:34:53;4.03;;;2.30;;
76995;SDS011;65929;49.062;10.338;2023-07-02T04:35:53;4.18;;;2.30;;
76995;SDS011;65929;49.062;10.338;2023-07-02T04:36:54;5.30;;;2.63;;
76995;SDS011;65929;49.062;10.338;2023-07-02T04:37:55;3.50;;;2.30;;
76995;SDS011;65929;49.062;10.338;2023-07-02T04:38:57;3.13;;;2.28;;
76995;SDS011;65929;49.062;10.338;2023-07-02T04:40:00;3.63;;;2.50;;
76995;SDS011;65929;49.062;10.338;2023-07-02T04:41:01;4.97;;;2.85;;
76995;SDS011;65929;49.062;10.338;2023-07-02T04:42:05;3.72;;;2.50;;
76995;SDS011;65929;49.062;10.338;2023-07-02T04:43:06;3.40;;;2.38;;
76995;SDS011;65929;49.062;10.338;2023-07-02T04:44:07;5.10;;;2.47;;
76995;SDS011;65929;49.062;10.338;2023-07-02T04:45:08;4.28;;;2.25;;
76995;SDS011;65929;49.062;10.338;2023-07-02T04:46:09;5.32;;;2.38;;
76995;SDS011;65929;49.062;10.338;2023-07-02T04:47:12;4.72;;;2.17;;
76995;SDS011;65929;49.062;10.338;2023-07-02T04:48:13;5.35;;;2.78;;
76995;SDS011;65929;49.062;10.338;2023-07-02T04:49:14;5.68;;;2.53;;
76995;SDS011;65929;49.062;10.338;2023-07-02T04:50:15;5.20;;;2.80;;
76995;SDS011;65929;49.062;10.338;2023-07-02T04:51:16;6.07;;;3.08;;
76995;SDS011;65929;49.062;10.338;2023-07-02T04:52:17;5.78;;;3.13;;
76995;SDS011;65929;49.062;10.338;2023-07-02T04:53:18;9.05;;;4.03;;
76995;SDS011;65929;49.062;10.338;2023-07-02T04:54:19;9.23;;;3.50;;
76995;SDS011;65929;49.062;10.338;2023-07-02T04:55:22;7.47;;;3.13;;
76995;SDS011;65929;49.062;10.338;2023-07-02T04:56:23;6.40;;;3.10;;
76995;SDS011;65929;49.062;10.338;2023-07-02T04:57:24;7.68;;;3.40;;
76995;SDS011;65929;49.062;10.338;2023-07-02T04:58:25;7.47;;;3.25;;
76995;SDS011;65929;49.062;10.338;2023-07-02T04:59:26;5.43;;;3.40;;
76995;SDS011;65929;49.062;10.338;2023-07-02T05:00:27;10.57;;;4.28;;
76995;SDS011;65929;49.062;10.338;2023-07-02T05:01:28;7.45;;;3.50;;
76995;SDS011;65929;49.062;10.338;2023-07-02T05:02:29;9.38;;;3.05;;
76995;SDS011;65929;49.062;10.338;2023-07-02T05:03:30;7.65;;;3.17;;
76995;SDS011;65929;49.062;10.338;2023-07-02T05:04:31;7.57;;;3.05;;
76995;SDS011;65929;49.062;10.338;2023-07-02T05:05:32;6.15;;;3.10;;
76995;SDS011;65929;49.062;10.338;2023-07-02T05:06:33;7.07;;;3.92;;
76995;SDS011;65929;49.062;10.338;2023-07-02T05:07:34;9.85;;;3.90;;
76995;SDS011;65929;49.062;10.338;2023-07-02T05:08:35;9.20;;;3.80;;
76995;SDS011;65929;49.062;10.338;2023-07-02T05:09:36;7.20;;;3.10;;
76995;SDS011;65929;49.062;10.338;2023-07-02T05:10:39;10.55;;;3.35;;
76995;SDS011;65929;49.062;10.338;2023-07-02T05:11:40;9.40;;;3.40;;
76995;SDS011;65929;49.062;10.338;2023-07-02T05:12:41;7.30;;;3.78;;
76995;SDS011;65929;49.062;10.338;2023-07-02T05:13:41;5.85;;;2.88;;
76995;SDS011;65929;49.062;10.338;2023-07-02T05:14:42;7.70;;;3.55;;
76995;SDS011;65929;49.062;10.338;2023-07-02T05:15:44;7.47;;;3.80;;
76995;SDS011;65929;49.062;10.338;2023-07-02T05:16:45;8.40;;;3.78;;
76995;SDS011;65929;49.062;10.338;2023-07-02T05:17:46;6.93;;;3.25;;
76995;SDS011;65929;49.062;10.338;2023-07-02T05:18:47;7.22;;;3.25;;
76995;SDS011;65929;49.062;10.338;2023-07-02T05:19:47;6.95;;;3.45;;
76995;SDS011;65929;49.062;10.338;2023-07-02T05:20:48;8.20;;;3.80;;
76995;SDS011;65929;49.062;10.338;2023-07-02T05:21:49;6.28;;;3.20;;
76995;SDS011;65929;49.062;10.338;2023-07-02T05:22:50;9.27;;;4.20;;
76995;SDS011;65929;49.062;10.338;2023-07-02T05:23:51;7.57;;;3.35;;
76995;SDS011;65929;49.062;10.338;2023-07-02T05:24:52;10.50;;;3.83;;
76995;SDS011;65929;49.062;10.338;2023-07-02T05:25:55;7.07;;;3.35;;
76995;SDS011;65929;49.062;10.338;2023-07-02T05:26:56;6.72;;;3.20;;
76995;SDS011;65929;49.062;10.338;2023-07-02T05:27:56;9.07;;;3.95;;
76995;SDS011;65929;49.062;10.338;2023-07-02T05:28:57;6.40;;;3.65;;
76995;SDS011;65929;49.062;10.338;2023-07-02T05:29:58;5.88;;;3.10;;
76995;SDS011;65929;49.062;10.338;2023-07-02T05:30:59;7.85;;;3.22;;
76995;SDS011;65929;49.062;10.338;2023-07-02T05:32:00;6.80;;;3.38;;
76995;SDS011;65929;49.062;10.338;2023-07-02T05:33:01;8.50;;;3.70;;
76995;SDS011;65929;49.062;10.338;2023-07-02T05:34:02;8.88;;;3.25;;
76995;SDS011;65929;49.062;10.338;2023-07-02T05:35:03;10.18;;;3.85;;
76995;SDS011;65929;49.062;10.338;2023-07-02T05:36:05;7.82;;;3.15;;
76995;SDS011;65929;49.062;10.338;2023-07-02T05:37:06;10.70;;;4.00;;
76995;SDS011;65929;49.062;10.338;2023-07-02T05:38:07;6.55;;;3.38;;
76995;SDS011;65929;49.062;10.338;2023-07-02T05:39:08;5.82;;;3.25;;
76995;SDS011;65929;49.062;10.338;2023-07-02T05:40:09;9.68;;;3.60;;
76995;SDS011;65929;49.062;10.338;2023-07-02T05:41:12;5.72;;;3.05;;
76995;SDS011;65929;49.062;10.338;2023-07-02T05:42:18;8.48;;;3.85;;
76995;SDS011;65929;49.062;10.338;2023-07-02T05:43:19;7.80;;;3.58;;
76995;SDS011;65929;49.062;10.338;2023-07-02T05:44:20;6.65;;;3.45;;
76995;SDS011;65929;49.062;10.338;2023-07-02T05:45:21;6.05;;;2.80;;
76995;SDS011;65929;49.062;10.338;2023-07-02T05:46:23;5.50;;;3.33;;
76995;SDS011;65929;49.062;10.338;2023-07-02T05:47:24;7.57;;;3.10;;
76995;SDS011;65929;49.062;10.338;2023-07-02T05:48:25;6.97;;;3.78;;
76995;SDS011;65929;49.062;10.338;2023-07-02T05:49:26;9.07;;;3.65;;
76995;SDS011;65929;49.062;10.338;2023-07-02T05:50:27;6.22;;;3.00;;
76995;SDS011;65929;49.062;10.338;2023-07-02T05:51:28;7.75;;;3.42;;
76995;SDS011;65929;49.062;10.338;2023-07-02T05:52:29;6.68;;;3.55;;
76995;SDS011;65929;49.062;10.338;2023-07-02T05:53:30;6.40;;;3.45;;
76995;SDS011;65929;49.062;10.338;2023-07-02T05:54:31;7.55;;;3.20;;
76995;SDS011;65929;49.062;10.338;2023-07-02T05:55:32;8.00;;;4.05;;
76995;SDS011;65929;49.062;10.338;2023-07-02T05:56:34;7.13;;;3.10;;
76995;SDS011;65929;49.062;10.338;2023-07-02T05:57:35;5.75;;;3.08;;
76995;SDS011;65929;49.062;10.338;2023-07-02T05:58:36;8.98;;;3.30;;
76995;SDS011;65929;49.062;10.338;2023-07-02T05:59:37;7.28;;;3.20;;
76995;SDS011;65929;49.062;10.338;2023-07-02T06:00:38;5.68;;;2.95;;
76995;SDS011;65929;49.062;10.338;2023-07-02T06:01:41;5.72;;;3.00;;
76995;SDS011;65929;49.062;10.338;2023-07-02T06:02:42;5.85;;;3.50;;
76995;SDS011;65929;49.062;10.338;2023-07-02T06:03:43;6.20;;;3.10;;
76995;SDS011;65929;49.062;10.338;2023-07-02T06:04:45;8.32;;;3.20;;
76995;SDS011;65929;49.062;10.338;2023-07-02T06:05:46;6.95;;;3.58;;
76995;SDS011;65929;49.062;10.338;2023-07-02T06:06:48;7.70;;;3.35;;
76995;SDS011;65929;49.062;10.338;2023-07-02T06:07:49;4.97;;;3.28;;
76995;SDS011;65929;49.062;10.338;2023-07-02T06:08:50;6.85;;;3.78;;
76995;SDS011;65929;49.062;10.338;2023-07-02T06:09:51;6.53;;;2.97;;
76995;SDS011;65929;49.062;10.338;2023-07-02T06:10:52;5.65;;;2.95;;
76995;SDS011;65929;49.062;10.338;2023-07-02T06:11:54;7.80;;;3.58;;
76995;SDS011;65929;49.062;10.338;2023-07-02T06:12:55;6.93;;;3.20;;
76995;SDS011;65929;49.062;10.338;2023-07-02T06:13:56;7.72;;;3.05;;
76995;SDS011;65929;49.062;10.338;2023-07-02T06:14:57;4.60;;;2.80;;
76995;SDS011;65929;49.062;10.338;2023-07-02T06:15:58;5.82;;;3.20;;
76995;SDS011;65929;49.062;10.338;2023-07-02T06:16:59;6.97;;;3.38;;